Time;durP1;ratioP1;P1;durP2;ratioP2;P2;SDS_P1;SDS_P2;PMS_P1;PMS_P2;Temp;Humidity;BMP_temperature;BMP_pressure;BME280_temperature;BME280_humidity;BME280_pressure;Samples;Min_cycle;Max_cycle;Signal;HPM_P1;HPM_P2
2023/08/30 00:01:39;;;;;;;6.20;5.60;;;14.00;99.90;;;;;;483111;246;28618;-73
2023/08/30 00:03:41;;;;;;;5.33;4.67;;;14.10;99.90;;;;;;483134;246;28511;-74
2023/08/30 00:05:43;;;;;;;6.00;4.40;;;14.00;99.90;;;;;;483135;246;28864;-75
2023/08/30 00:07:44;;;;;;;6.03;4.70;;;14.00;99.90;;;;;;483112;246;29337;-73
2023/08/30 00:09:45;;;;;;;4.70;4.30;;;14.00;99.90;;;;;;483147;246;29113;-74
2023/08/30 00:11:47;;;;;;;5.20;4.63;;;14.00;99.90;;;;;;483199;245;28859;-74
2023/08/30 00:13:48;;;;;;;4.47;4.07;;;14.00;99.90;;;;;;483137;246;28443;-73
2023/08/30 00:15:49;;;;;;;4.47;4.07;;;14.00;99.90;;;;;;482996;246;29300;-75
2023/08/30 00:17:54;;;;;;;5.53;4.53;;;14.00;99.90;;;;;;483117;245;28900;-74
2023/08/30 00:19:53;;;;;;;4.83;4.40;;;14.00;99.90;;;;;;482822;245;28434;-73
2023/08/30 00:21:53;;;;;;;6.27;4.80;;;14.00;99.90;;;;;;483041;246;28859;-75
2023/08/30 00:23:54;;;;;;;5.47;4.97;;;14.00;99.90;;;;;;483096;246;28546;-75
2023/08/30 00:25:56;;;;;;;4.63;4.20;;;13.90;99.90;;;;;;483111;246;28918;-75
2023/08/30 00:27:57;;;;;;;8.10;6.33;;;13.90;99.90;;;;;;483161;245;28455;-73
2023/08/30 00:29:58;;;;;;;11.27;6.40;;;13.90;99.90;;;;;;483142;246;28319;-73
2023/08/30 00:31:59;;;;;;;9.00;6.60;;;13.90;99.90;;;;;;483102;246;28434;-73
2023/08/30 00:34:01;;;;;;;5.93;5.33;;;13.90;99.90;;;;;;483112;246;28991;-73
2023/08/30 00:36:02;;;;;;;7.17;5.20;;;13.80;99.90;;;;;;483101;246;28919;-74
2023/08/30 00:38:03;;;;;;;5.60;4.73;;;13.80;99.90;;;;;;483126;246;29129;-74
2023/08/30 00:40:05;;;;;;;5.37;4.13;;;13.80;99.90;;;;;;483141;246;28638;-73
2023/08/30 00:42:07;;;;;;;6.40;5.67;;;13.80;99.90;;;;;;483097;246;28406;-75
2023/08/30 00:44:07;;;;;;;5.70;5.20;;;13.80;99.90;;;;;;483092;246;28877;-75
2023/08/30 00:46:08;;;;;;;7.43;4.90;;;13.80;99.90;;;;;;483125;246;28226;-75
2023/08/30 00:48:10;;;;;;;6.20;5.60;;;13.90;99.90;;;;;;483079;246;29373;-74
2023/08/30 00:50:11;;;;;;;5.93;5.33;;;13.90;99.90;;;;;;483139;246;28442;-74
2023/08/30 00:52:12;;;;;;;7.00;5.60;;;13.90;99.90;;;;;;483139;246;28421;-74
2023/08/30 00:54:15;;;;;;;5.90;5.40;;;13.90;99.90;;;;;;483135;245;28445;-74
2023/08/30 00:56:15;;;;;;;6.50;5.80;;;13.90;99.90;;;;;;483010;246;28871;-74
2023/08/30 00:58:16;;;;;;;6.00;5.50;;;13.90;99.90;;;;;;483104;246;28797;-73
2023/08/30 01:00:17;;;;;;;6.50;5.80;;;14.00;99.90;;;;;;483133;246;29011;-75
2023/08/30 01:02:19;;;;;;;6.03;5.43;;;14.00;99.90;;;;;;483112;246;29328;-74
2023/08/30 01:04:20;;;;;;;8.77;5.50;;;13.90;99.90;;;;;;483089;246;28443;-75
2023/08/30 01:06:21;;;;;;;6.10;5.50;;;13.90;99.90;;;;;;483118;246;28603;-73
2023/08/30 01:08:23;;;;;;;6.90;4.93;;;13.90;99.90;;;;;;483104;246;28995;-73
2023/08/30 01:10:24;;;;;;;6.30;5.67;;;13.90;99.90;;;;;;483142;245;28924;-73
2023/08/30 01:12:25;;;;;;;8.10;6.20;;;13.90;99.90;;;;;;483084;246;28631;-73
2023/08/30 01:14:26;;;;;;;6.20;5.70;;;13.90;99.90;;;;;;483075;246;28529;-73
2023/08/30 01:16:28;;;;;;;7.10;6.50;;;13.90;99.90;;;;;;483081;246;28382;-75
2023/08/30 01:18:30;;;;;;;7.03;6.33;;;13.90;99.90;;;;;;483141;245;28541;-75
2023/08/30 01:20:30;;;;;;;6.40;5.80;;;13.90;99.90;;;;;;483096;246;28546;-73
2023/08/30 01:22:32;;;;;;;8.83;6.60;;;13.90;99.90;;;;;;483102;246;28540;-73
2023/08/30 01:24:33;;;;;;;7.47;6.77;;;13.90;99.90;;;;;;483086;246;28308;-73
2023/08/30 01:26:34;;;;;;;8.30;7.60;;;13.90;99.90;;;;;;483114;246;28780;-73
2023/08/30 01:28:35;;;;;;;8.50;7.57;;;13.90;99.90;;;;;;483110;246;28384;-75
2023/08/30 01:30:37;;;;;;;8.43;7.53;;;13.90;99.90;;;;;;483098;246;28291;-74
2023/08/30 01:32:38;;;;;;;7.77;7.03;;;13.90;99.90;;;;;;483079;246;28554;-73
2023/08/30 01:34:39;;;;;;;10.10;7.20;;;13.90;99.90;;;;;;483097;246;28597;-73
2023/08/30 01:36:42;;;;;;;10.13;9.07;;;13.90;99.90;;;;;;483173;245;28553;-73
2023/08/30 01:38:42;;;;;;;9.03;8.10;;;13.80;99.90;;;;;;483026;246;29109;-75
2023/08/30 01:40:43;;;;;;;9.93;8.03;;;13.80;99.90;;;;;;483142;246;28431;-72
2023/08/30 01:42:45;;;;;;;7.80;7.10;;;13.80;99.90;;;;;;483061;246;28416;-73
2023/08/30 01:44:46;;;;;;;9.40;8.27;;;13.80;99.90;;;;;;483092;246;28873;-73
2023/08/30 01:46:48;;;;;;;10.27;9.27;;;13.80;99.90;;;;;;483132;246;28439;-73
2023/08/30 01:48:49;;;;;;;9.00;8.20;;;13.80;99.90;;;;;;483181;245;28458;-73
2023/08/30 01:50:51;;;;;;;9.87;8.87;;;13.80;99.90;;;;;;483105;246;28417;-74
2023/08/30 01:52:52;;;;;;;10.00;9.00;;;13.80;99.90;;;;;;483102;246;28550;-73
2023/08/30 01:54:53;;;;;;;9.60;8.57;;;13.80;99.90;;;;;;483069;246;29016;-74
2023/08/30 01:56:55;;;;;;;10.03;9.13;;;13.90;99.90;;;;;;483107;246;28867;-74
2023/08/30 01:58:56;;;;;;;15.53;11.47;;;13.90;99.90;;;;;;483131;246;28588;-73
2023/08/30 02:00:57;;;;;;;10.30;8.53;;;13.90;99.90;;;;;;483117;246;28966;-74
2023/08/30 02:02:58;;;;;;;10.17;9.23;;;13.90;99.90;;;;;;483123;246;28870;-74
2023/08/30 02:05:00;;;;;;;16.03;13.60;;;14.00;99.90;;;;;;483100;246;28770;-72
2023/08/30 02:07:01;;;;;;;13.63;10.90;;;13.90;99.90;;;;;;483109;246;28432;-73
2023/08/30 02:09:02;;;;;;;13.70;12.40;;;13.80;99.90;;;;;;483084;246;28911;-75
2023/08/30 02:11:03;;;;;;;12.20;10.40;;;13.90;99.90;;;;;;483135;246;29011;-73
2023/08/30 02:13:05;;;;;;;12.27;10.43;;;13.80;99.90;;;;;;483133;246;28553;-73
2023/08/30 02:15:06;;;;;;;12.53;10.30;;;13.80;99.90;;;;;;483176;246;28437;-73
2023/08/30 02:17:07;;;;;;;11.87;10.67;;;13.70;99.90;;;;;;483116;246;28866;-73
2023/08/30 02:19:09;;;;;;;13.23;10.70;;;13.70;99.90;;;;;;483204;245;29316;-74
2023/08/30 02:21:10;;;;;;;15.00;12.50;;;13.70;99.90;;;;;;483124;245;28443;-73
2023/08/30 02:23:11;;;;;;;11.70;10.60;;;13.70;99.90;;;;;;483090;246;28552;-75
2023/08/30 02:25:12;;;;;;;13.20;11.90;;;13.60;99.90;;;;;;483179;245;28981;-75
2023/08/30 02:27:14;;;;;;;10.63;9.63;;;13.60;99.90;;;;;;483101;246;28535;-73
2023/08/30 02:29:15;;;;;;;13.43;11.87;;;13.70;99.90;;;;;;483097;246;28773;-76
2023/08/30 02:31:16;;;;;;;13.60;12.03;;;13.60;99.90;;;;;;483105;246;28435;-73
2023/08/30 02:33:18;;;;;;;13.43;11.53;;;13.50;99.90;;;;;;483088;245;29396;-75
2023/08/30 02:35:19;;;;;;;13.90;12.37;;;13.50;99.90;;;;;;483099;246;28876;-73
2023/08/30 02:37:20;;;;;;;18.53;13.53;;;13.50;99.90;;;;;;483091;246;28491;-73
2023/08/30 02:39:21;;;;;;;15.10;12.73;;;13.50;99.90;;;;;;483113;245;28464;-73
2023/08/30 02:41:23;;;;;;;14.80;13.30;;;13.50;99.90;;;;;;483088;246;28447;-73
2023/08/30 02:43:24;;;;;;;15.03;13.23;;;13.50;99.90;;;;;;483177;245;28329;-73
2023/08/30 02:45:25;;;;;;;15.60;14.00;;;13.60;99.90;;;;;;483114;246;28203;-73
2023/08/30 02:47:26;;;;;;;17.80;15.90;;;13.60;99.90;;;;;;483133;246;28876;-75
2023/08/30 02:49:28;;;;;;;15.77;14.17;;;13.60;99.90;;;;;;483099;246;28745;-73
2023/08/30 02:51:29;;;;;;;15.90;13.47;;;13.60;99.90;;;;;;483091;246;28513;-75
2023/08/30 02:53:30;;;;;;;16.17;13.67;;;13.60;99.90;;;;;;483095;246;28324;-73
2023/08/30 02:55:32;;;;;;;16.30;14.60;;;13.70;99.90;;;;;;483096;246;28514;-73
2023/08/30 02:57:34;;;;;;;17.73;15.10;;;13.70;99.90;;;;;;483173;245;28447;-75
2023/08/30 02:59:35;;;;;;;18.37;15.07;;;13.70;99.90;;;;;;483168;246;28962;-73
2023/08/30 03:01:36;;;;;;;17.47;14.50;;;13.70;99.90;;;;;;483135;246;28924;-72
2023/08/30 03:03:38;;;;;;;16.97;13.80;;;13.70;99.90;;;;;;483105;246;28342;-72
2023/08/30 03:05:40;;;;;;;18.80;13.93;;;13.70;99.90;;;;;;483170;245;28559;-75
2023/08/30 03:07:41;;;;;;;16.60;14.87;;;13.80;99.90;;;;;;483119;246;28886;-72
2023/08/30 03:09:42;;;;;;;18.97;16.03;;;13.80;99.90;;;;;;483111;246;28924;-72
2023/08/30 03:11:43;;;;;;;17.90;16.00;;;13.80;99.90;;;;;;483099;246;28333;-73
2023/08/30 03:13:45;;;;;;;17.47;15.50;;;13.80;99.90;;;;;;483109;246;28232;-73
2023/08/30 03:15:46;;;;;;;17.00;14.47;;;13.80;99.90;;;;;;483093;246;28391;-73
2023/08/30 03:17:47;;;;;;;18.80;16.20;;;13.80;99.90;;;;;;483063;246;28449;-73
2023/08/30 03:19:48;;;;;;;20.73;16.63;;;13.80;99.90;;;;;;483077;246;28863;-75
2023/08/30 03:21:50;;;;;;;21.27;18.00;;;13.70;99.90;;;;;;482993;246;28900;-73
2023/08/30 03:23:51;;;;;;;22.13;18.30;;;13.70;99.90;;;;;;483082;246;28428;-73
2023/08/30 03:25:52;;;;;;;20.90;17.40;;;13.70;99.90;;;;;;483071;246;28227;-73
2023/08/30 03:27:53;;;;;;;22.53;18.00;;;13.70;99.90;;;;;;483121;245;28641;-75
2023/08/30 03:29:55;;;;;;;18.80;16.53;;;13.70;99.90;;;;;;483089;246;28535;-74
2023/08/30 03:31:56;;;;;;;17.23;14.83;;;13.70;99.90;;;;;;483104;246;28915;-74
2023/08/30 03:33:57;;;;;;;19.97;16.93;;;13.70;99.90;;;;;;483118;246;29348;-73
2023/08/30 03:35:59;;;;;;;18.53;16.30;;;13.70;99.90;;;;;;483125;246;28332;-73
2023/08/30 03:38:00;;;;;;;20.20;18.00;;;13.70;99.90;;;;;;483095;246;28514;-73
2023/08/30 03:40:02;;;;;;;19.43;17.20;;;13.70;99.90;;;;;;483083;246;28972;-73
2023/08/30 03:42:03;;;;;;;17.57;15.60;;;13.70;99.90;;;;;;482989;246;28421;-72
2023/08/30 03:44:05;;;;;;;19.83;16.77;;;13.70;99.90;;;;;;483125;246;28840;-73
2023/08/30 03:46:06;;;;;;;20.60;17.33;;;13.70;99.90;;;;;;483071;246;28929;-73
2023/08/30 03:48:07;;;;;;;21.97;17.40;;;13.80;99.90;;;;;;483097;246;28384;-74
2023/08/30 03:50:09;;;;;;;20.00;16.17;;;13.80;99.90;;;;;;483130;246;28563;-73
2023/08/30 03:52:10;;;;;;;14.20;12.70;;;13.70;99.90;;;;;;483168;245;28657;-74
2023/08/30 03:54:16;;;;;;;17.70;14.60;;;13.70;99.90;;;;;;483107;246;28967;-75
2023/08/30 03:56:12;;;;;;;16.00;13.20;;;13.70;99.90;;;;;;482821;246;28482;-73
2023/08/30 03:58:13;;;;;;;14.77;13.20;;;13.70;99.90;;;;;;483113;246;28538;-73
2023/08/30 04:00:15;;;;;;;14.73;13.20;;;13.70;99.90;;;;;;483102;246;28308;-74
2023/08/30 04:02:16;;;;;;;17.13;13.03;;;13.60;99.90;;;;;;483115;246;28439;-75
2023/08/30 04:04:17;;;;;;;16.37;12.97;;;13.60;99.90;;;;;;483120;246;28203;-73
2023/08/30 04:06:18;;;;;;;14.60;12.13;;;13.60;99.90;;;;;;483119;246;28874;-73
2023/08/30 04:08:20;;;;;;;13.23;11.87;;;13.60;99.90;;;;;;483095;246;28890;-73
2023/08/30 04:10:23;;;;;;;14.03;12.63;;;13.50;99.90;;;;;;483105;246;28185;-73
2023/08/30 04:12:24;;;;;;;14.67;12.33;;;13.50;99.90;;;;;;483185;245;28293;-73
2023/08/30 04:14:25;;;;;;;17.00;13.07;;;13.50;99.90;;;;;;483079;246;28787;-73
2023/08/30 04:16:27;;;;;;;14.57;12.20;;;13.40;99.90;;;;;;483105;246;28772;-75
2023/08/30 04:18:28;;;;;;;14.17;12.07;;;13.40;99.90;;;;;;483110;246;28304;-73
2023/08/30 04:20:29;;;;;;;11.80;10.60;;;13.30;99.90;;;;;;483091;246;28311;-73
2023/08/30 04:22:31;;;;;;;14.40;10.20;;;13.30;99.90;;;;;;483108;246;28330;-73
2023/08/30 04:24:32;;;;;;;10.70;9.60;;;13.20;99.90;;;;;;483104;246;28194;-73
2023/08/30 04:26:34;;;;;;;13.73;12.33;;;13.20;99.90;;;;;;483068;246;28730;-74
2023/08/30 04:28:36;;;;;;;11.80;10.60;;;13.20;99.90;;;;;;483119;245;28213;-74
2023/08/30 04:30:38;;;;;;;11.50;10.40;;;13.10;99.90;;;;;;483105;246;28702;-74
2023/08/30 04:32:39;;;;;;;13.10;11.67;;;13.10;99.90;;;;;;482835;246;28219;-74
2023/08/30 04:34:40;;;;;;;11.73;10.53;;;13.10;99.90;;;;;;483092;246;28881;-74
2023/08/30 04:36:41;;;;;;;11.50;10.40;;;13.10;99.90;;;;;;483040;246;28666;-74
2023/08/30 04:38:43;;;;;;;12.10;10.90;;;13.10;99.90;;;;;;483140;246;28346;-73
2023/08/30 04:40:44;;;;;;;14.83;12.70;;;13.10;99.90;;;;;;483146;246;28234;-73
2023/08/30 04:42:45;;;;;;;12.80;11.40;;;13.10;99.90;;;;;;483108;246;28767;-73
2023/08/30 04:44:46;;;;;;;12.60;10.80;;;13.10;99.90;;;;;;483097;245;28777;-73
2023/08/30 04:46:48;;;;;;;12.83;11.50;;;13.10;99.90;;;;;;483150;245;28228;-73
2023/08/30 04:48:49;;;;;;;14.83;12.40;;;13.10;99.90;;;;;;483144;246;28202;-73
2023/08/30 04:50:51;;;;;;;14.00;12.60;;;13.20;99.90;;;;;;483143;246;28740;-73
2023/08/30 04:52:52;;;;;;;18.73;12.80;;;13.20;99.90;;;;;;483195;245;28205;-73
2023/08/30 04:54:54;;;;;;;12.37;11.07;;;13.20;99.90;;;;;;483127;246;28688;-75
2023/08/30 04:56:55;;;;;;;15.23;13.40;;;13.30;99.90;;;;;;483133;246;29166;-73
2023/08/30 04:58:57;;;;;;;19.60;15.20;;;13.30;99.90;;;;;;483093;246;28298;-73
2023/08/30 05:00:58;;;;;;;15.60;13.40;;;13.30;99.90;;;;;;483125;246;28401;-73
2023/08/30 05:02:59;;;;;;;16.43;14.57;;;13.30;99.90;;;;;;483124;246;28909;-74
2023/08/30 05:05:00;;;;;;;15.10;13.03;;;13.30;99.90;;;;;;483111;246;28787;-73
2023/08/30 05:07:02;;;;;;;18.73;15.60;;;13.40;99.90;;;;;;483051;246;28318;-74
2023/08/30 05:09:03;;;;;;;17.50;14.57;;;13.30;99.90;;;;;;483099;246;28227;-73
2023/08/30 05:11:05;;;;;;;16.43;13.30;;;13.30;99.90;;;;;;483130;246;28688;-73
2023/08/30 05:13:06;;;;;;;22.30;16.80;;;13.30;99.90;;;;;;483225;245;28311;-73
2023/08/30 05:15:07;;;;;;;20.60;16.13;;;13.40;99.90;;;;;;483125;246;28779;-74
2023/08/30 05:17:09;;;;;;;27.13;17.97;;;13.40;99.90;;;;;;483145;246;28900;-74
2023/08/30 05:19:10;;;;;;;20.03;15.60;;;13.40;99.90;;;;;;483137;246;28310;-74
2023/08/30 05:21:11;;;;;;;20.63;16.07;;;13.30;99.90;;;;;;483139;246;28333;-73
2023/08/30 05:23:12;;;;;;;22.43;16.60;;;13.30;99.90;;;;;;483130;246;28803;-75
2023/08/30 05:25:15;;;;;;;33.70;19.13;;;;;;;;;;483114;246;30378;-74
2023/08/30 05:27:17;;;;;;;23.90;19.50;;;13.20;99.90;;;;;;483135;246;26502;-73
2023/08/30 05:29:17;;;;;;;24.30;18.30;;;13.20;99.90;;;;;;483044;246;28291;-74
2023/08/30 05:31:19;;;;;;;26.50;19.67;;;13.30;99.90;;;;;;483126;246;29103;-73
2023/08/30 05:33:20;;;;;;;26.43;18.93;;;13.30;99.90;;;;;;483120;246;29819;-74
2023/08/30 05:35:21;;;;;;;32.57;22.37;;;13.30;99.90;;;;;;483034;246;28542;-73
2023/08/30 05:37:22;;;;;;;26.10;18.00;;;13.30;99.90;;;;;;483098;246;28330;-74
2023/08/30 05:39:24;;;;;;;25.57;19.10;;;13.40;99.90;;;;;;483128;245;28809;-73
2023/08/30 05:41:25;;;;;;;25.97;20.07;;;13.30;99.90;;;;;;483088;246;28336;-72
2023/08/30 05:43:26;;;;;;;24.97;18.57;;;13.30;99.90;;;;;;483095;246;28963;-72
2023/08/30 05:45:28;;;;;;;27.77;20.10;;;13.30;99.90;;;;;;483060;246;28426;-73
2023/08/30 05:47:29;;;;;;;26.27;18.67;;;13.40;99.90;;;;;;483174;245;28803;-73
2023/08/30 05:49:30;;;;;;;24.37;18.40;;;13.50;99.90;;;;;;483100;246;28927;-73
2023/08/30 05:51:31;;;;;;;24.33;18.73;;;13.50;99.90;;;;;;483100;246;28231;-75
2023/08/30 05:53:33;;;;;;;25.10;18.70;;;13.50;99.90;;;;;;483090;246;28762;-78
2023/08/30 05:55:34;;;;;;;26.27;17.90;;;13.40;99.90;;;;;;483104;246;28917;-75
2023/08/30 05:57:35;;;;;;;27.03;16.67;;;13.40;99.90;;;;;;483093;246;28772;-73
2023/08/30 05:59:37;;;;;;;23.37;18.60;;;13.40;99.90;;;;;;483100;246;28870;-75
2023/08/30 06:01:38;;;;;;;25.00;19.17;;;13.50;99.90;;;;;;483101;246;28310;-73
2023/08/30 06:03:40;;;;;;;22.80;17.20;;;13.60;99.90;;;;;;483067;246;29033;-73
2023/08/30 06:05:42;;;;;;;28.60;19.00;;;13.60;99.90;;;;;;483100;245;28463;-74
2023/08/30 06:07:44;;;;;;;23.20;16.60;;;13.60;99.90;;;;;;483090;246;28790;-73
2023/08/30 06:09:45;;;;;;;26.67;18.77;;;13.60;99.90;;;;;;483159;245;28562;-73
2023/08/30 06:11:46;;;;;;;39.10;20.87;;;13.70;99.90;;;;;;483103;246;28817;-76
2023/08/30 06:13:48;;;;;;;24.20;17.07;;;13.70;99.90;;;;;;483102;246;28324;-75
2023/08/30 06:15:49;;;;;;;22.37;17.70;;;13.60;99.90;;;;;;483079;246;29025;-75
2023/08/30 06:17:50;;;;;;;22.27;18.00;;;13.70;99.90;;;;;;483122;246;28998;-72
2023/08/30 06:19:51;;;;;;;24.17;17.83;;;13.80;99.90;;;;;;483090;246;28455;-74
2023/08/30 06:21:53;;;;;;;21.70;16.47;;;13.90;99.90;;;;;;483085;246;28209;-75
2023/08/30 06:23:54;;;;;;;26.13;18.83;;;13.80;99.90;;;;;;483110;245;29022;-75
2023/08/30 06:25:55;;;;;;;21.27;16.43;;;13.90;99.90;;;;;;483092;246;28861;-75
2023/08/30 06:28:01;;;;;;;22.27;17.37;;;14.00;99.90;;;;;;483089;246;28313;-74
2023/08/30 06:29:58;;;;;;;20.07;16.00;;;14.10;99.90;;;;;;482860;246;28565;-79
2023/08/30 06:31:59;;;;;;;19.90;15.33;;;14.10;99.90;;;;;;483109;246;28864;-74
2023/08/30 06:34:00;;;;;;;20.47;16.23;;;14.10;99.90;;;;;;483074;246;28556;-72
2023/08/30 06:36:03;;;;;;;21.80;16.10;;;14.10;99.90;;;;;;483094;246;28759;-72
2023/08/30 06:38:04;;;;;;;28.90;20.20;;;14.10;99.90;;;;;;483130;245;28507;-72
2023/08/30 06:40:05;;;;;;;25.20;18.83;;;14.10;99.90;;;;;;483113;246;28991;-72
2023/08/30 06:42:07;;;;;;;22.03;16.47;;;14.10;99.90;;;;;;483093;246;28615;-75
2023/08/30 06:44:08;;;;;;;23.00;17.00;;;14.10;99.90;;;;;;483082;246;28999;-76
2023/08/30 06:46:09;;;;;;;20.30;15.97;;;14.20;99.90;;;;;;483090;246;28464;-75
2023/08/30 06:48:10;;;;;;;24.47;17.43;;;14.20;99.90;;;;;;483102;245;28758;-73
2023/08/30 06:50:11;;;;;;;23.07;18.67;;;14.20;99.90;;;;;;483133;245;28905;-73
2023/08/30 06:52:13;;;;;;;25.80;17.93;;;14.20;99.90;;;;;;483064;246;28636;-71
2023/08/30 06:54:14;;;;;;;24.90;17.60;;;14.30;99.90;;;;;;483120;246;28920;-72
2023/08/30 06:56:15;;;;;;;22.90;17.13;;;14.20;99.90;;;;;;483113;246;28622;-74
2023/08/30 06:58:17;;;;;;;25.43;18.23;;;14.30;99.90;;;;;;483105;246;29093;-73
2023/08/30 07:00:18;;;;;;;21.40;17.13;;;14.40;99.90;;;;;;483078;246;28859;-75
2023/08/30 07:02:19;;;;;;;20.03;15.30;;;14.50;99.90;;;;;;483099;246;29308;-73
2023/08/30 07:04:20;;;;;;;19.83;15.13;;;14.60;99.90;;;;;;483104;246;28984;-78
2023/08/30 07:06:23;;;;;;;24.43;17.23;;;14.60;99.90;;;;;;483082;246;29317;-72
2023/08/30 07:08:24;;;;;;;24.13;16.10;;;14.50;99.90;;;;;;483079;245;28868;-74
2023/08/30 07:10:25;;;;;;;24.73;18.30;;;14.60;99.90;;;;;;483075;246;29332;-76
2023/08/30 07:12:27;;;;;;;26.90;19.10;;;14.70;99.90;;;;;;483106;246;28853;-75
2023/08/30 07:14:28;;;;;;;28.07;19.27;;;14.80;99.90;;;;;;483170;245;29454;-73
2023/08/30 07:16:31;;;;;;;23.77;17.10;;;14.70;99.90;;;;;;483101;246;28856;-73
2023/08/30 07:18:31;;;;;;;22.70;17.37;;;14.60;99.90;;;;;;483023;246;29394;-72
2023/08/30 07:20:32;;;;;;;22.80;17.50;;;14.70;99.90;;;;;;483009;246;28847;-73
2023/08/30 07:22:33;;;;;;;22.97;17.73;;;14.80;99.90;;;;;;483009;246;29336;-72
2023/08/30 07:24:34;;;;;;;27.30;19.80;;;14.80;99.90;;;;;;483104;246;29344;-73
2023/08/30 07:26:36;;;;;;;23.93;17.87;;;14.80;99.90;;;;;;482970;246;28765;-74
2023/08/30 07:28:37;;;;;;;23.37;18.13;;;14.90;99.90;;;;;;483089;245;28876;-75
2023/08/30 07:30:38;;;;;;;20.27;16.10;;;14.90;99.90;;;;;;483099;246;29297;-73
2023/08/30 07:32:40;;;;;;;28.13;20.97;;;14.90;99.90;;;;;;483197;245;28865;-75
2023/08/30 07:34:41;;;;;;;20.03;16.20;;;14.80;99.90;;;;;;483094;246;29303;-75
2023/08/30 07:36:42;;;;;;;28.80;18.73;;;14.80;99.90;;;;;;483086;246;29388;-75
2023/08/30 07:38:43;;;;;;;23.63;17.83;;;14.90;99.90;;;;;;483096;246;29419;-75
2023/08/30 07:40:45;;;;;;;20.60;16.83;;;15.00;99.90;;;;;;483116;246;28958;-75
2023/08/30 07:42:46;;;;;;;22.80;17.40;;;15.00;99.90;;;;;;483080;246;28862;-76
2023/08/30 07:44:47;;;;;;;33.97;22.33;;;14.90;99.90;;;;;;483101;246;28914;-75
2023/08/30 07:46:49;;;;;;;23.03;18.10;;;14.90;99.90;;;;;;483116;246;29306;-74
2023/08/30 07:48:50;;;;;;;24.20;18.37;;;14.90;99.90;;;;;;483137;246;28880;-77
2023/08/30 07:50:51;;;;;;;24.57;18.57;;;14.90;99.90;;;;;;483136;246;29308;-74
2023/08/30 07:52:52;;;;;;;22.53;18.00;;;15.00;99.90;;;;;;483124;246;28869;-74
2023/08/30 07:54:54;;;;;;;22.67;16.80;;;15.00;99.90;;;;;;483142;245;29667;-77
2023/08/30 07:56:55;;;;;;;23.20;18.33;;;15.10;99.90;;;;;;483078;246;28860;-74
2023/08/30 07:58:58;;;;;;;25.90;19.80;;;15.20;99.90;;;;;;483011;246;29420;-73
2023/08/30 08:00:59;;;;;;;23.07;17.43;;;15.00;99.90;;;;;;483100;246;28843;-74
2023/08/30 08:03:00;;;;;;;25.50;19.37;;;15.00;99.90;;;;;;482993;246;29715;-75
2023/08/30 08:05:02;;;;;;;22.00;17.77;;;15.10;99.90;;;;;;483121;246;29305;-76
2023/08/30 08:07:03;;;;;;;24.57;18.60;;;15.20;99.90;;;;;;483194;245;28864;-75
2023/08/30 08:09:04;;;;;;;28.00;19.70;;;15.40;99.90;;;;;;483099;246;28962;-75
2023/08/30 08:11:05;;;;;;;21.60;18.80;;;15.30;99.90;;;;;;483110;246;29315;-76
2023/08/30 08:13:06;;;;;;;23.03;18.73;;;15.30;99.90;;;;;;483116;246;29313;-73
2023/08/30 08:15:07;;;;;;;20.00;16.17;;;15.30;99.90;;;;;;483113;246;28860;-72
2023/08/30 08:17:09;;;;;;;18.00;16.10;;;15.40;99.90;;;;;;483111;246;28899;-74
2023/08/30 08:19:12;;;;;;;18.37;15.07;;;15.50;99.90;;;;;;482992;246;29416;-72
2023/08/30 08:21:11;;;;;;;17.63;14.80;;;15.60;99.90;;;;;;483018;246;29312;-73
2023/08/30 08:23:13;;;;;;;19.60;16.50;;;15.70;99.90;;;;;;483114;246;28850;-76
2023/08/30 08:25:14;;;;;;;16.67;14.87;;;15.70;99.90;;;;;;483098;246;29400;-76
2023/08/30 08:27:15;;;;;;;17.00;14.83;;;15.70;99.90;;;;;;483105;246;28858;-75
2023/08/30 08:29:17;;;;;;;16.80;13.57;;;15.80;99.90;;;;;;483105;246;29286;-75
2023/08/30 08:31:19;;;;;;;14.80;13.20;;;15.90;99.90;;;;;;483113;245;28870;-75
2023/08/30 08:33:22;;;;;;;16.20;13.87;;;15.80;99.90;;;;;;483224;245;29288;-75
2023/08/30 08:35:21;;;;;;;13.50;12.30;;;15.80;99.90;;;;;;482981;246;28870;-75
2023/08/30 08:37:23;;;;;;;14.70;13.20;;;16.00;99.90;;;;;;483114;245;29304;-75
2023/08/30 08:39:24;;;;;;;17.97;14.60;;;16.10;99.90;;;;;;483128;246;29312;-73
2023/08/30 08:41:25;;;;;;;16.70;15.07;;;16.00;99.90;;;;;;483112;246;28862;-76
2023/08/30 08:43:26;;;;;;;16.40;14.70;;;16.00;99.90;;;;;;483148;245;28866;-72
2023/08/30 08:45:28;;;;;;;14.10;12.70;;;16.00;99.90;;;;;;483097;246;29420;-76
2023/08/30 08:47:29;;;;;;;11.80;10.70;;;16.10;99.90;;;;;;483091;245;28854;-74
2023/08/30 08:49:31;;;;;;;12.90;11.60;;;16.30;99.90;;;;;;483105;246;29295;-75
2023/08/30 08:51:34;;;;;;;14.20;12.90;;;16.30;99.90;;;;;;483109;246;28912;-75
2023/08/30 08:53:33;;;;;;;13.03;11.83;;;16.10;99.90;;;;;;482984;246;29300;-76
2023/08/30 08:55:35;;;;;;;15.10;13.67;;;16.10;99.90;;;;;;483106;246;29303;-75
2023/08/30 08:57:35;;;;;;;12.80;11.60;;;16.20;99.90;;;;;;483102;246;28932;-75
2023/08/30 08:59:37;;;;;;;15.57;13.07;;;16.40;99.90;;;;;;483100;246;28831;-75
2023/08/30 09:01:39;;;;;;;11.67;10.60;;;16.50;99.90;;;;;;483103;246;28845;-75
2023/08/30 09:03:39;;;;;;;14.97;13.50;;;16.60;99.90;;;;;;483061;246;29334;-72
2023/08/30 09:05:41;;;;;;;10.93;9.70;;;16.70;99.90;;;;;;482976;246;28851;-75
2023/08/30 09:07:42;;;;;;;10.63;9.63;;;16.80;99.90;;;;;;483090;246;29356;-75
2023/08/30 09:09:43;;;;;;;12.70;10.97;;;17.00;99.90;;;;;;483042;246;29311;-76
2023/08/30 09:11:44;;;;;;;10.63;9.73;;;16.90;99.90;;;;;;483093;246;28854;-74
2023/08/30 09:13:46;;;;;;;10.63;9.60;;;16.80;99.90;;;;;;483082;246;29374;-73
2023/08/30 09:15:47;;;;;;;10.83;9.73;;;16.60;99.90;;;;;;483135;245;29319;-73
2023/08/30 09:17:48;;;;;;;9.43;8.63;;;16.50;99.90;;;;;;483175;245;29320;-76
2023/08/30 09:19:50;;;;;;;9.33;8.50;;;16.50;99.90;;;;;;483085;246;28862;-73
2023/08/30 09:21:51;;;;;;;10.40;9.50;;;16.70;99.90;;;;;;483098;246;28952;-74
2023/08/30 09:23:52;;;;;;;9.77;8.80;;;16.70;99.90;;;;;;483165;245;28956;-73
2023/08/30 09:25:53;;;;;;;9.43;8.63;;;16.60;99.90;;;;;;483108;246;28838;-74
2023/08/30 09:27:54;;;;;;;9.60;8.70;;;16.60;99.90;;;;;;483084;246;28878;-75
2023/08/30 09:29:56;;;;;;;9.00;8.20;;;16.60;99.90;;;;;;483084;246;28932;-74
2023/08/30 09:31:57;;;;;;;8.47;7.67;;;16.60;99.90;;;;;;483276;245;28857;-75
2023/08/30 09:33:59;;;;;;;8.87;7.97;;;16.70;99.90;;;;;;483048;246;28850;-74
2023/08/30 09:36:00;;;;;;;8.07;7.17;;;16.90;99.90;;;;;;483060;246;29329;-74
2023/08/30 09:38:01;;;;;;;7.63;6.93;;;16.90;99.90;;;;;;483091;246;29309;-75
2023/08/30 09:40:03;;;;;;;7.00;6.43;;;17.00;99.90;;;;;;483080;246;29339;-74
2023/08/30 09:42:03;;;;;;;8.60;7.80;;;17.10;99.90;;;;;;483092;246;28925;-74
2023/08/30 09:44:05;;;;;;;6.87;6.27;;;17.20;99.90;;;;;;483099;246;28873;-75
2023/08/30 09:46:06;;;;;;;7.20;6.50;;;17.30;99.90;;;;;;483095;246;28865;-74
2023/08/30 09:48:07;;;;;;;6.93;6.27;;;17.30;99.90;;;;;;483083;245;28933;-76
2023/08/30 09:50:08;;;;;;;6.80;6.20;;;17.30;99.90;;;;;;483085;246;28880;-76
2023/08/30 09:52:10;;;;;;;7.37;6.67;;;17.20;99.90;;;;;;483088;246;28857;-74
2023/08/30 09:54:11;;;;;;;5.43;5.00;;;17.00;99.90;;;;;;482990;246;28909;-75
2023/08/30 09:56:12;;;;;;;5.97;5.47;;;16.90;99.90;;;;;;483072;246;28926;-75
2023/08/30 09:58:13;;;;;;;6.93;5.27;;;17.00;99.90;;;;;;483082;246;28852;-75
2023/08/30 10:00:15;;;;;;;7.77;6.70;;;17.00;99.90;;;;;;483092;246;29315;-73
2023/08/30 10:02:17;;;;;;;5.97;5.47;;;17.00;99.90;;;;;;483104;246;29314;-73
2023/08/30 10:04:17;;;;;;;8.27;6.03;;;17.00;99.90;;;;;;483084;245;29395;-76
2023/08/30 10:06:18;;;;;;;5.30;4.80;;;17.20;99.90;;;;;;483090;246;29326;-76
2023/08/30 10:08:20;;;;;;;7.00;6.10;;;17.50;99.90;;;;;;483079;246;28875;-78
2023/08/30 10:10:21;;;;;;;6.37;5.77;;;17.60;99.90;;;;;;483089;246;28987;-75
2023/08/30 10:12:22;;;;;;;6.17;5.43;;;17.60;99.90;;;;;;483082;246;28864;-75
2023/08/30 10:14:23;;;;;;;5.07;4.67;;;17.50;99.90;;;;;;483096;246;28839;-79
2023/08/30 10:16:25;;;;;;;6.73;4.90;;;17.60;99.90;;;;;;483093;246;28855;-74
2023/08/30 10:18:26;;;;;;;4.63;4.23;;;17.80;99.90;;;;;;483098;246;29385;-75
2023/08/30 10:20:27;;;;;;;7.43;4.50;;;17.90;99.90;;;;;;483080;246;29409;-75